createdAt,value
2023-01-13T00:00:38.546Z,1.93
2023-01-13T00:03:07.282Z,1.47
2023-01-13T00:05:35.762Z,1.80
2023-01-13T00:08:05.076Z,3.60
2023-01-13T00:10:33.981Z,1.93
2023-01-13T00:13:05.785Z,2.90
2023-01-13T00:15:35.044Z,1.90
2023-01-13T00:18:03.408Z,3.07
2023-01-13T00:20:31.672Z,4.13
2023-01-13T00:23:00.314Z,2.63
2023-01-13T00:25:28.625Z,2.53
2023-01-13T00:27:56.939Z,1.93
2023-01-13T00:30:26.678Z,2.13
2023-01-13T00:32:55.238Z,2.27
2023-01-13T00:35:23.545Z,2.37
2023-01-13T00:37:51.843Z,1.47
2023-01-13T00:40:20.193Z,1.37
2023-01-13T00:43:05.997Z,1.77
2023-01-13T00:45:35.747Z,1.57
2023-01-13T00:48:04.790Z,2.43
2023-01-13T00:50:33.651Z,2.53
2023-01-13T00:53:02.130Z,1.97
2023-01-13T00:55:33.248Z,2.00
2023-01-13T00:58:03.827Z,1.63
2023-01-13T01:00:32.451Z,2.20
2023-01-13T01:03:02.344Z,1.43
2023-01-13T01:05:30.823Z,1.37
2023-01-13T01:07:59.256Z,1.30
2023-01-13T01:10:28.006Z,3.10
2023-01-13T01:12:56.404Z,1.77
2023-01-13T01:15:24.942Z,2.07
2023-01-13T01:17:53.495Z,2.37
2023-01-13T01:20:23.235Z,4.07
2023-01-13T01:22:51.728Z,2.50
2023-01-13T01:25:20.132Z,2.33
2023-01-13T01:27:48.398Z,1.20
2023-01-13T01:30:17.070Z,1.90
2023-01-13T01:32:45.440Z,2.67
2023-01-13T01:35:13.867Z,3.23
2023-01-13T01:37:43.598Z,2.00
2023-01-13T01:40:13.139Z,2.60
2023-01-13T01:42:58.899Z,2.80
2023-01-13T01:45:30.716Z,2.13
2023-01-13T01:48:01.051Z,4.63
2023-01-13T01:50:31.048Z,2.00
2023-01-13T01:53:07.832Z,2.90
2023-01-13T01:55:39.157Z,1.40
2023-01-13T01:58:11.540Z,4.17
2023-01-13T02:00:39.959Z,2.63
2023-01-13T02:03:10.198Z,3.33
2023-01-13T02:05:39.100Z,3.73
2023-01-13T02:08:11.042Z,2.07
2023-01-13T02:10:40.841Z,3.00
2023-01-13T02:13:13.188Z,2.77
2023-01-13T02:15:49.579Z,3.07
2023-01-13T02:18:37.620Z,2.17
2023-01-13T02:21:50.812Z,2.60
2023-01-13T02:24:57.961Z,2.40
2023-01-13T02:27:58.531Z,2.63
2023-01-13T02:30:57.603Z,3.07
2023-01-13T02:33:48.493Z,4.17
2023-01-13T02:36:25.551Z,3.77
2023-01-13T02:39:01.812Z,3.00
2023-01-13T02:41:55.339Z,2.80
2023-01-13T02:44:30.701Z,1.90
2023-01-13T02:47:05.831Z,2.83
2023-01-13T02:49:37.092Z,3.83
2023-01-13T02:52:11.708Z,1.97
2023-01-13T02:54:44.111Z,2.40
2023-01-13T02:57:16.006Z,3.07
2023-01-13T02:59:45.221Z,1.73
2023-01-13T03:02:20.201Z,1.53
2023-01-13T03:04:51.938Z,1.70
2023-01-13T03:07:47.933Z,2.27
2023-01-13T03:10:28.590Z,2.07
2023-01-13T03:13:03.876Z,3.53
2023-01-13T03:15:41.536Z,4.30
2023-01-13T03:18:21.132Z,3.00
2023-01-13T03:20:58.893Z,2.67
2023-01-13T03:23:34.098Z,2.70
2023-01-13T03:26:09.849Z,1.33
2023-01-13T03:28:44.027Z,3.70
2023-01-13T03:31:16.904Z,2.50
2023-01-13T03:33:52.466Z,1.13
2023-01-13T03:36:26.090Z,1.27
2023-01-13T03:38:58.311Z,1.20
2023-01-13T03:41:34.494Z,1.53
2023-01-13T03:44:24.490Z,0.83
2023-01-13T03:47:04.110Z,2.10
2023-01-13T03:49:38.189Z,2.67
2023-01-13T03:52:10.966Z,1.30
2023-01-13T03:54:46.062Z,2.00
2023-01-13T03:57:19.043Z,2.40
2023-01-13T03:59:51.621Z,1.37
2023-01-13T04:02:28.626Z,1.83
2023-01-13T04:05:02.989Z,1.80
2023-01-13T04:07:40.306Z,0.90
2023-01-13T04:10:11.123Z,2.47
2023-01-13T04:13:04.951Z,1.90
2023-01-13T04:15:37.499Z,2.40
2023-01-13T04:18:21.419Z,4.27
2023-01-13T04:20:52.604Z,1.77
2023-01-13T04:23:22.210Z,2.73
2023-01-13T04:25:51.529Z,1.53
2023-01-13T04:28:21.019Z,1.13
2023-01-13T04:30:49.561Z,2.20
2023-01-13T04:33:19.804Z,2.60
2023-01-13T04:35:49.805Z,1.73
2023-01-13T04:38:19.749Z,1.73
2023-01-13T04:40:48.055Z,2.40
2023-01-13T04:43:16.646Z,1.10
2023-01-13T04:45:45.490Z,3.50
2023-01-13T04:48:13.708Z,1.47
2023-01-13T04:50:42.082Z,2.83
2023-01-13T04:53:11.706Z,3.77
2023-01-13T04:55:39.985Z,2.37
2023-01-13T04:58:10.007Z,1.60
2023-01-13T05:00:39.243Z,2.00
2023-01-13T05:03:07.479Z,1.97
2023-01-13T05:05:35.895Z,1.80
2023-01-13T05:08:04.019Z,1.47
2023-01-13T05:10:33.890Z,1.70
2023-01-13T05:13:19.574Z,1.17
2023-01-13T05:16:11.408Z,1.47
2023-01-13T05:18:39.684Z,1.60
2023-01-13T05:21:28.557Z,2.57
2023-01-13T05:24:14.012Z,2.87
2023-01-13T05:26:43.526Z,1.53
2023-01-13T05:29:11.703Z,2.43
2023-01-13T05:31:39.891Z,1.27
2023-01-13T05:34:08.076Z,3.10
2023-01-13T05:36:36.294Z,1.23
2023-01-13T05:39:05.348Z,0.83
2023-01-13T05:41:50.906Z,1.30
2023-01-13T05:44:20.478Z,1.00
2023-01-13T05:46:48.737Z,2.17
2023-01-13T05:49:16.915Z,2.03
2023-01-13T05:51:45.113Z,0.93
2023-01-13T05:54:13.468Z,1.27
2023-01-13T05:56:41.665Z,1.43
2023-01-13T05:59:10.245Z,2.73
2023-01-13T06:01:39.964Z,0.83
2023-01-13T06:04:08.274Z,1.03
2023-01-13T06:06:36.472Z,1.53
2023-01-13T06:09:04.749Z,1.03
2023-01-13T06:11:32.983Z,1.70
2023-01-13T06:14:01.222Z,2.03
2023-01-13T06:16:29.466Z,1.20
2023-01-13T06:18:58.968Z,0.90
2023-01-13T06:21:27.160Z,0.83
2023-01-13T06:23:55.489Z,0.83
2023-01-13T06:26:25.985Z,0.70
2023-01-13T06:28:54.164Z,1.37
2023-01-13T06:31:22.641Z,0.80
2023-01-13T06:33:54.623Z,1.63
2023-01-13T06:36:28.832Z,1.10
2023-01-13T06:39:00.800Z,1.07
2023-01-13T06:41:49.470Z,0.87
2023-01-13T06:44:17.998Z,0.87
2023-01-13T06:46:46.543Z,1.70
2023-01-13T06:49:14.760Z,0.83
2023-01-13T06:51:44.236Z,0.70
2023-01-13T06:54:12.379Z,1.13
2023-01-13T06:56:40.589Z,0.70
2023-01-13T06:59:08.988Z,1.60
2023-01-13T07:01:37.299Z,0.77
2023-01-13T07:04:05.935Z,1.40
2023-01-13T07:06:34.167Z,1.10
2023-01-13T07:09:05.475Z,1.10
2023-01-13T07:11:34.906Z,0.97
2023-01-13T07:14:19.611Z,4.20
2023-01-13T07:16:48.033Z,2.17
2023-01-13T07:19:23.221Z,1.33
2023-01-13T07:21:52.731Z,1.73
2023-01-13T07:24:22.918Z,2.63
2023-01-13T07:26:52.337Z,2.73
2023-01-13T07:29:20.677Z,2.50
2023-01-13T07:31:50.264Z,6.30
2023-01-13T07:34:18.921Z,5.93
2023-01-13T07:36:47.123Z,7.03
2023-01-13T07:39:15.392Z,6.53
2023-01-13T07:42:02.472Z,3.73
2023-01-13T07:44:30.903Z,6.60
2023-01-13T07:46:59.108Z,10.33
2023-01-13T07:49:27.294Z,11.17
2023-01-13T07:51:55.630Z,9.33
2023-01-13T07:54:35.102Z,5.40
2023-01-13T07:57:09.593Z,11.13
2023-01-13T07:59:37.996Z,21.07
2023-01-13T08:02:06.401Z,11.13
2023-01-13T08:04:35.539Z,38.20
2023-01-13T08:07:04.931Z,9.07
2023-01-13T08:09:33.190Z,13.43
2023-01-13T08:12:15.353Z,5.50
2023-01-13T08:14:45.044Z,2.60
2023-01-13T08:17:13.245Z,5.57
2023-01-13T08:19:41.478Z,1.73
2023-01-13T08:22:09.718Z,3.67
2023-01-13T08:24:37.964Z,7.30
2023-01-13T08:27:06.242Z,3.57
2023-01-13T08:29:34.438Z,4.17
2023-01-13T08:32:04.207Z,4.90
2023-01-13T08:34:32.538Z,5.57
2023-01-13T08:37:00.852Z,3.10
2023-01-13T08:39:29.147Z,4.90
2023-01-13T08:41:58.835Z,3.83
2023-01-13T08:44:29.269Z,3.97
2023-01-13T08:46:57.857Z,4.83
2023-01-13T08:49:27.697Z,5.77
2023-01-13T08:51:56.068Z,4.23
2023-01-13T08:54:24.308Z,4.57
2023-01-13T08:56:52.736Z,4.37
2023-01-13T08:59:21.875Z,2.10
2023-01-13T09:01:50.232Z,2.83
2023-01-13T09:04:21.692Z,1.80
2023-01-13T09:06:52.442Z,1.70
2023-01-13T09:09:20.900Z,2.07
2023-01-13T09:12:09.349Z,2.23
2023-01-13T09:14:39.338Z,1.37
2023-01-13T09:17:08.662Z,2.97
2023-01-13T09:19:37.517Z,3.13
2023-01-13T09:22:07.126Z,3.27
2023-01-13T09:24:35.362Z,3.10
2023-01-13T09:27:03.713Z,5.70
2023-01-13T09:29:32.118Z,7.13
2023-01-13T09:32:00.381Z,4.70
2023-01-13T09:34:46.159Z,3.70
2023-01-13T09:37:15.880Z,8.40
2023-01-13T09:39:44.252Z,5.97
2023-01-13T09:42:39.200Z,4.57
2023-01-13T09:45:11.895Z,4.43
2023-01-13T09:47:46.219Z,2.77
2023-01-13T09:50:26.059Z,7.57
2023-01-13T09:52:55.915Z,4.53
2023-01-13T09:55:28.754Z,2.27
2023-01-13T09:57:57.524Z,4.13
2023-01-13T10:00:28.667Z,2.20
2023-01-13T10:03:09.644Z,4.00
2023-01-13T10:05:39.416Z,6.37
2023-01-13T10:08:13.598Z,7.37
2023-01-13T10:10:46.679Z,4.73
2023-01-13T10:13:20.130Z,8.70
2023-01-13T10:16:14.901Z,0.77
2023-01-13T10:18:58.125Z,10.43
2023-01-13T10:21:50.351Z,22.47
2023-01-13T10:24:26.579Z,8.03
2023-01-13T10:27:01.578Z,4.73
2023-01-13T10:29:31.636Z,2.73
2023-01-13T10:32:01.945Z,4.27
2023-01-13T10:34:31.045Z,2.03
2023-01-13T10:37:06.354Z,5.13
2023-01-13T10:39:44.328Z,2.13
2023-01-13T10:42:15.504Z,3.73
2023-01-13T10:44:52.138Z,2.87
2023-01-13T10:47:26.937Z,3.60
2023-01-13T10:50:08.681Z,2.97
2023-01-13T10:52:43.054Z,3.40
2023-01-13T10:55:27.775Z,1.20
2023-01-13T10:57:56.165Z,2.50
2023-01-13T11:00:29.723Z,3.00
2023-01-13T11:03:14.921Z,1.90
2023-01-13T11:05:50.513Z,2.20
2023-01-13T11:08:20.780Z,2.97
2023-01-13T11:10:54.807Z,1.97
2023-01-13T11:13:30.625Z,5.53
2023-01-13T11:16:05.295Z,4.77
2023-01-13T11:18:51.968Z,5.37
2023-01-13T11:21:26.986Z,3.87
2023-01-13T11:24:03.389Z,3.53
2023-01-13T11:26:41.958Z,5.23
2023-01-13T11:29:16.104Z,4.97
2023-01-13T11:31:49.562Z,2.60
2023-01-13T11:34:29.444Z,4.40
2023-01-13T11:37:01.566Z,4.40
2023-01-13T11:39:45.558Z,7.40
2023-01-13T11:42:24.788Z,4.17
2023-01-13T11:45:05.697Z,4.97
2023-01-13T11:47:35.058Z,3.00
2023-01-13T11:50:04.330Z,5.40
2023-01-13T11:52:48.682Z,4.80
2023-01-13T11:55:36.325Z,5.10
2023-01-13T11:58:27.163Z,3.60
2023-01-13T12:01:22.961Z,5.13
2023-01-13T12:04:02.793Z,4.37
2023-01-13T12:06:36.026Z,5.27
2023-01-13T12:09:28.099Z,5.17
2023-01-13T12:12:20.371Z,5.90
2023-01-13T12:15:08.993Z,7.40
2023-01-13T12:17:46.694Z,7.07
2023-01-13T12:20:28.155Z,5.33
2023-01-13T12:23:01.213Z,5.70
2023-01-13T12:25:34.832Z,3.27
2023-01-13T12:28:10.739Z,4.73
2023-01-13T12:30:46.581Z,4.33
2023-01-13T12:33:24.766Z,5.57
2023-01-13T12:36:00.856Z,5.27
2023-01-13T12:38:36.993Z,6.50
2023-01-13T12:41:17.098Z,5.17
2023-01-13T12:44:07.418Z,5.37
2023-01-13T12:46:56.186Z,6.27
2023-01-13T12:49:30.757Z,5.37
2023-01-13T12:52:14.636Z,7.13
2023-01-13T12:55:02.752Z,4.90
2023-01-13T12:57:35.075Z,4.53
2023-01-13T13:00:17.841Z,6.77
2023-01-13T13:03:33.405Z,6.03
2023-01-13T13:06:11.060Z,5.90
2023-01-13T13:09:04.257Z,6.37
2023-01-13T13:12:00.389Z,5.70
2023-01-13T13:15:04.523Z,4.17
2023-01-13T13:17:59.664Z,7.87
2023-01-13T13:21:03.962Z,7.40
2023-01-13T13:24:05.261Z,4.60
2023-01-13T13:26:38.988Z,5.80
2023-01-13T13:29:25.298Z,5.30
2023-01-13T13:32:16.854Z,4.87
2023-01-13T13:34:53.588Z,4.73
2023-01-13T13:37:59.799Z,6.93
2023-01-13T13:40:50.056Z,3.73
2023-01-13T13:43:37.864Z,5.87
2023-01-13T13:46:42.706Z,3.83
2023-01-13T13:49:11.964Z,3.47
2023-01-13T13:51:46.423Z,4.33
2023-01-13T13:54:20.884Z,4.20
2023-01-13T13:56:50.900Z,3.57
2023-01-13T13:59:22.561Z,2.50
2023-01-13T14:02:00.824Z,3.93
2023-01-13T14:04:31.132Z,3.47
2023-01-13T14:07:01.850Z,1.90
2023-01-13T14:09:45.248Z,4.37
2023-01-13T14:12:19.922Z,4.90
2023-01-13T14:14:49.858Z,6.13
2023-01-13T14:17:24.818Z,4.27
2023-01-13T14:19:56.437Z,4.50
2023-01-13T14:22:24.804Z,6.30
2023-01-13T14:24:57.759Z,4.77
2023-01-13T14:27:28.398Z,4.47
2023-01-13T14:29:59.046Z,3.78
2023-01-13T14:32:32.116Z,3.88
2023-01-13T14:35:00.482Z,5.35
2023-01-13T14:37:36.100Z,5.70
2023-01-13T14:40:06.933Z,5.47
2023-01-13T14:42:36.216Z,4.83
2023-01-13T14:45:04.939Z,6.03
2023-01-13T14:47:34.853Z,5.80
2023-01-13T14:50:06.310Z,6.33
2023-01-13T14:52:36.476Z,6.90
2023-01-13T14:55:26.163Z,5.30
2023-01-13T14:57:54.907Z,6.70
2023-01-13T15:00:25.290Z,7.17
2023-01-13T15:03:08.692Z,5.30
2023-01-13T15:05:42.671Z,7.60
2023-01-13T15:08:33.988Z,4.47
2023-01-13T15:11:06.536Z,7.60
2023-01-13T15:13:41.609Z,6.80
2023-01-13T15:16:18.311Z,4.87
2023-01-13T15:18:46.629Z,7.70
2023-01-13T15:21:16.168Z,5.20
2023-01-13T15:23:47.203Z,4.53
2023-01-13T15:26:23.439Z,6.33
2023-01-13T15:28:53.079Z,5.80
2023-01-13T15:31:21.806Z,4.63
2023-01-13T15:33:50.817Z,4.67
2023-01-13T15:36:25.725Z,5.80
2023-01-13T15:38:53.964Z,5.47
2023-01-13T15:41:38.127Z,5.07
2023-01-13T15:44:23.828Z,3.23
2023-01-13T15:46:53.372Z,4.73
2023-01-13T15:49:27.346Z,5.83
2023-01-13T15:51:55.688Z,6.33
2023-01-13T15:54:24.788Z,5.83
2023-01-13T15:56:55.109Z,4.63
2023-01-13T15:59:27.335Z,5.47
2023-01-13T16:01:55.604Z,4.20
2023-01-13T16:04:24.063Z,5.07
2023-01-13T16:06:52.430Z,5.63
2023-01-13T16:09:20.716Z,4.97
2023-01-13T16:11:49.143Z,4.97
2023-01-13T16:14:18.957Z,7.30
2023-01-13T16:16:47.405Z,5.00
2023-01-13T16:19:15.687Z,4.30
2023-01-13T16:21:45.348Z,7.93
2023-01-13T16:24:13.723Z,5.63
2023-01-13T16:26:42.013Z,4.90
2023-01-13T16:29:12.726Z,3.87
2023-01-13T16:31:42.495Z,2.77
2023-01-13T16:34:10.913Z,2.90
2023-01-13T16:36:39.222Z,2.13
2023-01-13T16:39:21.833Z,2.97
2023-01-13T16:41:50.148Z,2.73
2023-01-13T16:44:18.501Z,2.00
2023-01-13T16:46:48.269Z,1.47
2023-01-13T16:49:18.358Z,3.00
2023-01-13T16:51:46.640Z,3.07
2023-01-13T16:54:15.075Z,1.60
2023-01-13T16:56:43.408Z,3.07
2023-01-13T16:59:14.856Z,2.90
2023-01-13T17:01:44.959Z,2.13
2023-01-13T17:04:17.572Z,3.47
2023-01-13T17:06:54.011Z,3.73
2023-01-13T17:09:25.266Z,1.63
2023-01-13T17:11:53.954Z,4.90
2023-01-13T17:14:23.544Z,4.20
2023-01-13T17:16:54.830Z,3.30
2023-01-13T17:19:25.850Z,2.57
2023-01-13T17:21:54.494Z,3.40
2023-01-13T17:24:24.760Z,1.13
2023-01-13T17:26:53.211Z,2.33
2023-01-13T17:29:25.175Z,1.40
2023-01-13T17:31:54.176Z,2.37
2023-01-13T17:34:24.377Z,2.43
2023-01-13T17:36:52.806Z,2.67
2023-01-13T17:39:23.552Z,1.93
2023-01-13T17:41:52.867Z,2.63
2023-01-13T17:44:23.095Z,3.67
2023-01-13T17:46:51.441Z,3.53
2023-01-13T17:49:21.753Z,1.00
2023-01-13T17:51:53.011Z,1.67
2023-01-13T17:54:21.414Z,2.10
2023-01-13T17:56:49.990Z,2.27
2023-01-13T17:59:20.409Z,4.73
2023-01-13T18:01:48.746Z,3.23
2023-01-13T18:04:18.593Z,4.30
2023-01-13T18:06:47.837Z,4.90
2023-01-13T18:09:18.032Z,8.83
2023-01-13T18:11:47.502Z,4.63
2023-01-13T18:14:16.356Z,4.70
2023-01-13T18:16:45.099Z,3.40
2023-01-13T18:19:31.346Z,2.83
2023-01-13T18:22:17.151Z,5.17
2023-01-13T18:25:04.390Z,2.43
2023-01-13T18:27:34.673Z,3.73
2023-01-13T18:30:06.555Z,4.43
2023-01-13T18:32:35.860Z,5.17
2023-01-13T18:35:10.090Z,2.87
2023-01-13T18:37:40.422Z,4.07
2023-01-13T18:40:13.251Z,3.90
2023-01-13T18:42:54.373Z,4.67
2023-01-13T18:45:25.243Z,5.10
2023-01-13T18:47:54.313Z,3.33
2023-01-13T18:50:23.137Z,3.80
2023-01-13T18:52:51.972Z,5.60
2023-01-13T18:55:22.351Z,5.93
2023-01-13T18:57:51.373Z,6.73
2023-01-13T19:00:21.524Z,5.63
2023-01-13T19:05:35.597Z,5.53
2023-01-13T19:08:04.502Z,6.03
2023-01-13T19:10:34.337Z,7.57
2023-01-13T19:13:02.869Z,5.53
2023-01-13T19:15:31.165Z,5.73
2023-01-13T19:18:00.307Z,5.17
2023-01-13T19:20:28.792Z,5.37
2023-01-13T19:22:56.980Z,4.00
2023-01-13T19:25:25.468Z,4.63
2023-01-13T19:27:55.325Z,7.43
2023-01-13T19:30:23.948Z,4.57
2023-01-13T19:32:52.361Z,3.77
2023-01-13T19:35:20.957Z,5.87
2023-01-13T19:37:49.573Z,5.03
2023-01-13T19:40:18.047Z,7.23
2023-01-13T19:43:03.851Z,7.70
2023-01-13T19:45:35.494Z,4.97
2023-01-13T19:48:05.456Z,13.70
2023-01-13T19:50:37.443Z,10.33
2023-01-13T19:53:06.066Z,7.03
2023-01-13T19:55:35.048Z,3.87
2023-01-13T19:58:03.638Z,3.67
2023-01-13T20:00:34.233Z,4.50
2023-01-13T20:03:07.004Z,4.93
2023-01-13T20:05:35.358Z,5.50
2023-01-13T20:08:03.999Z,3.97
2023-01-13T20:10:34.054Z,5.57
2023-01-13T20:13:02.325Z,3.73
2023-01-13T20:15:31.376Z,3.90
2023-01-13T20:18:01.554Z,6.57
2023-01-13T20:20:30.214Z,6.13
2023-01-13T20:22:59.600Z,5.33
2023-01-13T20:25:28.935Z,5.97
2023-01-13T20:27:58.483Z,6.63
2023-01-13T20:30:26.928Z,4.13
2023-01-13T20:32:55.152Z,7.43
2023-01-13T20:35:29.634Z,5.67
2023-01-13T20:37:58.375Z,5.90
2023-01-13T20:40:26.827Z,6.80
2023-01-13T20:42:54.747Z,7.63
2023-01-13T20:45:23.717Z,5.67
2023-01-13T20:47:51.985Z,6.67
2023-01-13T20:50:20.427Z,5.67
2023-01-13T20:52:49.896Z,5.20
2023-01-13T20:55:18.158Z,6.13
2023-01-13T20:57:48.794Z,6.00
2023-01-13T21:00:18.064Z,6.03
2023-01-13T21:02:46.252Z,7.13
2023-01-13T21:05:14.518Z,5.17
2023-01-13T21:07:42.980Z,6.80
2023-01-13T21:10:12.940Z,7.40
2023-01-13T21:12:59.092Z,5.90
2023-01-13T21:15:27.808Z,7.40
2023-01-13T21:18:13.729Z,6.20
2023-01-13T21:20:42.076Z,6.90
2023-01-13T21:23:11.634Z,6.33
2023-01-13T21:25:41.542Z,8.57
2023-01-13T21:28:11.205Z,7.50
2023-01-13T21:30:40.286Z,5.40
2023-01-13T21:33:09.222Z,5.47
2023-01-13T21:35:39.905Z,3.80
2023-01-13T21:38:08.360Z,7.00
2023-01-13T21:40:36.876Z,8.23
2023-01-13T21:43:24.023Z,6.70
2023-01-13T21:46:09.853Z,7.90
2023-01-13T21:48:38.044Z,6.70
2023-01-13T21:51:06.717Z,9.47
2023-01-13T21:53:34.847Z,9.23
2023-01-13T21:56:03.158Z,12.37
2023-01-13T21:58:32.699Z,8.83
2023-01-13T22:01:03.894Z,7.80
2023-01-13T22:03:52.708Z,7.90
2023-01-13T22:06:21.041Z,8.80
2023-01-13T22:08:49.355Z,6.33
2023-01-13T22:11:17.595Z,6.17
2023-01-13T22:14:04.429Z,4.63
2023-01-13T22:16:34.004Z,6.37
2023-01-13T22:19:02.250Z,5.20
2023-01-13T22:21:30.740Z,5.10
2023-01-13T22:23:59.250Z,5.70
2023-01-13T22:26:27.797Z,6.00
2023-01-13T22:28:57.573Z,4.63
2023-01-13T22:31:26.305Z,5.10
2023-01-13T22:33:55.766Z,5.73
2023-01-13T22:36:24.915Z,6.43
2023-01-13T22:38:55.793Z,5.27
2023-01-13T22:41:24.536Z,6.47
2023-01-13T22:43:52.928Z,6.77
2023-01-13T22:46:22.986Z,5.00
2023-01-13T22:48:53.767Z,5.73
2023-01-13T22:51:22.923Z,4.73
2023-01-13T22:53:51.270Z,5.13
2023-01-13T22:56:21.562Z,4.97
2023-01-13T22:58:53.409Z,5.77
2023-01-13T23:01:24.291Z,7.40
2023-01-13T23:03:52.855Z,8.17
2023-01-13T23:06:22.764Z,5.17
2023-01-13T23:08:51.395Z,8.03
2023-01-13T23:11:20.943Z,5.23
2023-01-13T23:13:49.163Z,7.03
2023-01-13T23:16:19.562Z,9.20
2023-01-13T23:18:49.588Z,6.83
2023-01-13T23:21:20.543Z,6.67
2023-01-13T23:23:49.401Z,7.97
2023-01-13T23:26:18.371Z,6.50
2023-01-13T23:28:46.646Z,7.03
2023-01-13T23:31:17.676Z,7.87
2023-01-13T23:33:46.277Z,7.33
2023-01-13T23:36:17.919Z,8.53
2023-01-13T23:38:46.736Z,5.30
2023-01-13T23:41:16.557Z,7.87
2023-01-13T23:43:44.795Z,8.33
2023-01-13T23:46:16.522Z,8.97
2023-01-13T23:48:44.785Z,6.77
2023-01-13T23:51:15.424Z,4.67
2023-01-13T23:53:45.683Z,5.43
2023-01-13T23:56:15.509Z,6.30
2023-01-13T23:58:45.137Z,5.73
